Time;durP1;ratioP1;P1;durP2;ratioP2;P2;SDS_P1;SDS_P2;PMS_P1;PMS_P2;Temp;Humidity;BMP_temperature;BMP_pressure;BME280_temperature;BME280_humidity;BME280_pressure;Samples;Min_cycle;Max_cycle;Signal;HPM_P1;HPM_P2
2022/01/16 00:01:14;;;;;;;10.93;4.40;;;28.20;70.00;;;;;;4132549;28;20088;-70
2022/01/16 00:06:17;;;;;;;6.72;3.95;;;28.20;70.10;;;;;;4132791;28;20058;-68
2022/01/16 00:08:40;;;;;;;10.80;4.60;;;28.30;70.20;;;;;;4139432;28;20188;-70
2022/01/16 00:11:02;;;;;;;13.10;4.83;;;28.30;70.30;;;;;;4133317;28;20116;-70
2022/01/16 00:13:25;;;;;;;7.07;4.88;;;28.30;70.40;;;;;;4129256;28;20327;-72
2022/01/16 00:15:47;;;;;;;8.73;5.18;;;28.30;70.30;;;;;;4133429;28;20133;-69
2022/01/16 00:18:20;;;;;;;9.23;4.45;;;28.40;70.30;;;;;;4134925;28;20037;-69
2022/01/16 00:20:42;;;;;;;6.35;4.55;;;28.40;70.30;;;;;;4140593;28;20151;-70
2022/01/16 00:23:08;;;;;;;10.73;4.93;;;28.40;70.30;;;;;;4135895;28;20094;-70
2022/01/16 00:25:31;;;;;;;10.85;5.07;;;28.40;70.20;;;;;;4136690;28;20038;-74
2022/01/16 00:27:53;;;;;;;6.95;4.35;;;28.40;70.20;;;;;;4128999;28;20141;-69
2022/01/16 00:30:17;;;;;;;6.55;4.40;;;28.50;70.20;;;;;;4131544;28;20125;-70
2022/01/16 00:32:39;;;;;;;7.60;4.72;;;28.50;70.10;;;;;;4137601;28;20041;-72
2022/01/16 00:35:02;;;;;;;6.95;5.00;;;28.50;70.20;;;;;;4132174;28;20586;-70
2022/01/16 00:37:25;;;;;;;6.72;4.53;;;28.50;70.20;;;;;;4135993;28;20042;-70
2022/01/16 00:39:47;;;;;;;7.15;4.60;;;28.50;70.70;;;;;;4136470;28;20191;-71
2022/01/16 00:42:12;;;;;;;6.15;4.32;;;28.50;70.00;;;;;;4135898;28;20042;-69
2022/01/16 00:44:34;;;;;;;7.95;4.55;;;28.50;70.00;;;;;;4135055;28;20666;-70
2022/01/16 00:46:57;;;;;;;11.25;5.00;;;28.60;70.00;;;;;;4133881;28;20089;-70
2022/01/16 00:49:19;;;;;;;9.98;4.63;;;28.60;70.10;;;;;;4143456;28;20037;-71
2022/01/16 00:51:42;;;;;;;7.18;5.00;;;28.60;70.10;;;;;;4142935;28;20470;-74
2022/01/16 00:54:05;;;;;;;10.60;5.03;;;28.60;70.00;;;;;;4132477;28;20046;-71
2022/01/16 00:56:28;;;;;;;13.25;5.32;;;28.60;70.00;;;;;;4131944;28;20038;-68
2022/01/16 00:58:50;;;;;;;10.82;5.35;;;28.60;70.10;;;;;;4133273;28;20046;-72
2022/01/16 01:01:13;;;;;;;7.85;5.38;;;28.70;70.10;;;;;;4133175;28;20272;-70
2022/01/16 01:03:35;;;;;;;8.13;6.05;;;28.70;70.10;;;;;;4136001;28;20157;-70
2022/01/16 01:05:58;;;;;;;8.63;5.10;;;28.70;70.10;;;;;;4128917;28;20129;-74
2022/01/16 01:08:27;;;;;;;14.32;6.03;;;28.70;70.10;;;;;;4139790;28;20464;-70
2022/01/16 01:10:52;;;;;;;13.07;5.43;;;28.70;70.10;;;;;;4133580;28;20044;-74
2022/01/16 01:15:48;;;;;;;11.40;6.15;;;28.80;70.10;;;;;;4135120;28;20055;-70
2022/01/16 01:18:11;;;;;;;11.40;5.90;;;28.80;70.00;;;;;;4134669;28;20053;-78
2022/01/16 01:20:34;;;;;;;9.67;5.57;;;28.80;70.10;;;;;;4135931;28;20041;-70
2022/01/16 01:22:57;;;;;;;8.00;5.35;;;28.80;69.90;;;;;;4135694;28;20287;-72
2022/01/16 01:25:20;;;;;;;10.30;6.15;;;28.80;69.90;;;;;;4136129;28;20044;-71
2022/01/16 01:27:44;;;;;;;9.32;6.10;;;28.80;69.90;;;;;;4133727;28;20513;-70
2022/01/16 01:30:10;;;;;;;9.63;6.32;;;28.90;69.90;;;;;;4138023;28;20045;-70
2022/01/16 01:32:42;;;;;;;8.73;5.82;;;28.90;69.80;;;;;;4138846;28;20034;-72
2022/01/16 01:35:07;;;;;;;6.82;5.28;;;28.90;69.80;;;;;;4134327;28;20030;-73
2022/01/16 01:37:29;;;;;;;8.40;5.15;;;28.90;69.80;;;;;;4131570;28;20472;-71
2022/01/16 01:39:51;;;;;;;10.57;5.88;;;28.90;69.80;;;;;;4133550;28;20039;-77
2022/01/16 01:42:15;;;;;;;10.77;6.13;;;29.00;70.00;;;;;;4133506;28;20103;-70
2022/01/16 01:52:47;;;;;;;8.38;5.28;;;29.10;69.90;;;;;;4130500;28;20040;-69
2022/01/16 01:55:10;;;;;;;9.85;5.50;;;29.10;69.90;;;;;;4128401;28;20156;-72
2022/01/16 01:57:33;;;;;;;12.32;6.13;;;29.10;69.90;;;;;;4135112;28;20138;-72
2022/01/16 01:59:55;;;;;;;10.27;6.53;;;29.10;70.00;;;;;;4135267;28;20111;-72
2022/01/16 02:02:18;;;;;;;9.30;6.35;;;29.10;70.00;;;;;;4135679;28;20068;-75
2022/01/16 02:04:40;;;;;;;12.25;6.43;;;29.10;69.70;;;;;;4137022;28;20037;-75
2022/01/16 02:07:03;;;;;;;10.40;7.05;;;29.20;69.60;;;;;;4128736;28;20042;-74
2022/01/16 02:09:26;;;;;;;14.73;7.00;;;29.20;69.50;;;;;;4132068;28;20030;-74
2022/01/16 02:11:51;;;;;;;12.90;7.90;;;29.20;69.60;;;;;;4129124;28;20304;-74
2022/01/16 02:14:26;;;;;;;10.75;6.38;;;29.20;69.70;;;;;;4134629;28;20069;-76
2022/01/16 02:28:12;;;;;;;12.15;7.00;;;29.30;69.80;;;;;;4130784;28;20109;-69
2022/01/16 02:35:57;;;;;;;12.55;6.30;;;29.40;70.20;;;;;;4130908;28;20140;-72
2022/01/16 02:38:21;;;;;;;11.93;6.68;;;29.40;70.30;;;;;;4115413;28;20507;-69
2022/01/16 02:40:50;;;;;;;12.98;6.25;;;29.40;70.30;;;;;;4129610;28;20107;-70
2022/01/16 02:43:15;;;;;;;27.08;6.20;;;29.50;70.60;;;;;;4132122;28;20460;-69
2022/01/16 02:45:45;;;;;;;11.68;7.07;;;29.50;70.70;;;;;;4132819;28;20206;-70
2022/01/16 02:48:08;;;;;;;9.48;5.57;;;29.50;70.80;;;;;;4152182;28;20053;-68
2022/01/16 02:50:30;;;;;;;;;;;29.50;70.80;;;;;;4136763;28;20090;-69
2022/01/16 02:52:56;;;;;;;11.85;5.88;;;29.60;70.80;;;;;;4133415;28;19935;-69
2022/01/16 02:55:21;;;;;;;13.90;6.95;;;29.60;69.50;;;;;;4131456;28;20133;-69
2022/01/16 02:57:43;;;;;;;10.77;7.93;;;29.50;65.10;;;;;;4136200;28;20536;-70
2022/01/16 03:00:07;;;;;;;9.27;7.63;;;29.30;61.80;;;;;;4135573;28;20080;-71
2022/01/16 03:02:29;;;;;;;;;;;29.10;60.20;;;;;;4134219;28;20097;-70
2022/01/16 03:04:52;;;;;;;15.52;11.23;;;28.80;58.90;;;;;;4135800;28;20023;-71
2022/01/16 03:07:15;;;;;;;19.23;13.25;;;28.60;59.00;;;;;;4139495;28;20492;-70
2022/01/16 03:12:12;;;;;;;24.23;18.65;;;28.20;57.80;;;;;;4129594;28;20050;-74
2022/01/16 03:14:34;;;;;;;25.45;19.58;;;28.10;57.30;;;;;;4135420;28;20030;-76
2022/01/16 03:16:57;;;;;;;27.42;20.85;;;28.00;56.80;;;;;;4122857;28;20057;-74
2022/01/16 03:22:03;;;;;;;28.08;22.10;;;27.70;56.70;;;;;;4141458;28;20132;-74
2022/01/16 03:24:29;;;;;;;28.40;22.75;;;27.50;56.50;;;;;;4131791;28;20093;-75
2022/01/16 03:26:53;;;;;;;30.65;23.33;;;27.40;56.50;;;;;;4133834;28;20116;-74
2022/01/16 03:29:15;;;;;;;33.72;23.92;;;27.30;57.20;;;;;;4133801;28;20038;-73
2022/01/16 03:31:38;;;;;;;34.35;23.40;;;27.20;56.90;;;;;;4135811;28;20426;-72
2022/01/16 03:34:01;;;;;;;30.50;22.50;;;27.20;56.90;;;;;;4130028;28;20089;-75
2022/01/16 03:36:24;;;;;;;30.90;22.60;;;27.20;58.50;;;;;;4134142;28;20038;-76
2022/01/16 03:38:46;;;;;;;26.13;18.73;;;27.30;59.30;;;;;;4132342;28;20050;-72
2022/01/16 03:41:08;;;;;;;22.48;14.77;;;27.30;60.70;;;;;;4128909;28;20034;-75
2022/01/16 03:43:31;;;;;;;16.25;12.20;;;27.40;61.40;;;;;;4133129;28;20044;-80
2022/01/16 03:45:53;;;;;;;11.75;8.98;;;27.50;61.90;;;;;;4130076;28;20037;-74
2022/01/16 03:48:17;;;;;;;11.20;7.60;;;27.60;62.40;;;;;;4130538;28;20063;-78
2022/01/16 03:50:39;;;;;;;9.68;6.40;;;27.70;62.70;;;;;;4134150;28;20045;-74
2022/01/16 03:53:02;;;;;;;7.38;4.43;;;27.80;63.00;;;;;;4132988;28;20087;-75
2022/01/16 03:55:25;;;;;;;10.77;4.60;;;27.80;63.20;;;;;;4137380;28;20081;-78
2022/01/16 03:57:47;;;;;;;5.38;3.45;;;27.90;63.60;;;;;;4135265;28;20046;-75
2022/01/16 04:00:10;;;;;;;7.30;3.35;;;28.00;63.80;;;;;;4136561;28;20156;-76
2022/01/16 04:02:32;;;;;;;8.77;3.17;;;28.00;64.00;;;;;;4134840;28;20068;-75
2022/01/16 04:04:55;;;;;;;6.05;2.72;;;28.10;64.30;;;;;;4143222;28;20734;-76
2022/01/16 04:07:25;;;;;;;6.50;2.50;;;28.10;64.40;;;;;;4136891;28;20129;-76
2022/01/16 04:09:47;;;;;;;5.35;2.15;;;28.20;64.60;;;;;;4119940;28;20641;-79
2022/01/16 04:12:10;;;;;;;5.65;2.25;;;28.30;64.80;;;;;;4134963;28;20077;-74
2022/01/16 04:17:15;;;;;;;3.72;2.05;;;28.30;64.90;;;;;;4138918;28;20050;-76
2022/01/16 04:19:38;;;;;;;2.72;1.55;;;28.40;65.10;;;;;;4130135;28;20077;-75
2022/01/16 04:22:00;;;;;;;4.35;1.60;;;28.40;65.10;;;;;;4127890;28;20041;-74
2022/01/16 04:24:22;;;;;;;4.20;1.60;;;28.50;65.40;;;;;;4135209;28;20118;-76
2022/01/16 04:26:45;;;;;;;2.72;1.50;;;28.50;65.60;;;;;;4136683;28;20058;-77
2022/01/16 04:29:07;;;;;;;3.63;1.00;;;28.60;65.70;;;;;;4139326;28;20061;-76
2022/01/16 04:31:30;;;;;;;4.05;1.45;;;28.60;66.20;;;;;;4139968;28;20100;-76
2022/01/16 04:33:52;;;;;;;1.63;1.13;;;28.70;66.40;;;;;;4137913;28;20034;-77
2022/01/16 04:36:15;;;;;;;5.07;1.20;;;28.80;66.60;;;;;;4135635;28;20038;-75
2022/01/16 04:38:44;;;;;;;1.88;1.10;;;28.80;66.70;;;;;;4136357;28;20076;-77
2022/01/16 04:43:47;;;;;;;5.00;1.65;;;28.90;66.70;;;;;;4142498;28;20041;-76
2022/01/16 04:46:10;;;;;;;29.87;2.90;;;29.00;66.70;;;;;;4139906;28;20054;-76
2022/01/16 04:48:32;;;;;;;16.95;2.22;;;29.10;67.10;;;;;;4135090;28;20048;-80
2022/01/16 04:50:55;;;;;;;16.90;2.17;;;29.10;67.30;;;;;;4134671;28;20222;-73
2022/01/16 04:53:17;;;;;;;14.35;1.88;;;29.20;67.30;;;;;;4131080;28;20038;-77
2022/01/16 04:55:39;;;;;;;6.97;1.42;;;29.20;67.40;;;;;;4138724;28;20034;-73
2022/01/16 04:58:02;;;;;;;6.95;1.20;;;29.30;67.50;;;;;;4133749;28;20038;-76
2022/01/16 05:00:24;;;;;;;4.95;1.15;;;29.30;67.50;;;;;;4138122;28;20085;-72
2022/01/16 05:02:47;;;;;;;2.38;0.90;;;29.40;67.60;;;;;;4137700;28;20053;-69
2022/01/16 05:05:10;;;;;;;2.80;1.00;;;29.40;67.60;;;;;;4141689;28;20038;-69
2022/01/16 05:07:32;;;;;;;3.00;0.90;;;29.40;67.60;;;;;;4132237;28;20046;-69
2022/01/16 05:09:55;;;;;;;2.65;0.98;;;29.50;67.70;;;;;;4137720;28;20034;-69
2022/01/16 05:12:26;;;;;;;1.98;0.80;;;29.50;67.70;;;;;;4134510;28;20107;-69
2022/01/16 05:17:29;;;;;;;1.92;0.95;;;29.70;67.80;;;;;;4134519;28;20068;-68
2022/01/16 05:19:51;;;;;;;1.80;0.90;;;29.70;67.70;;;;;;4142466;28;20070;-70
2022/01/16 05:22:14;;;;;;;2.20;0.85;;;29.70;67.60;;;;;;4133304;28;20048;-72
2022/01/16 05:24:36;;;;;;;0.97;0.67;;;29.80;67.50;;;;;;4137439;28;20076;-69
2022/01/16 05:26:59;;;;;;;1.20;0.88;;;29.90;67.80;;;;;;4138366;28;20208;-72
2022/01/16 05:29:21;;;;;;;1.60;0.80;;;29.90;67.90;;;;;;4136620;28;20608;-71
2022/01/16 05:31:47;;;;;;;2.35;1.00;;;29.90;67.70;;;;;;4138350;28;20048;-73
2022/01/16 05:34:10;;;;;;;2.30;0.80;;;30.00;67.60;;;;;;4123663;28;20078;-71
2022/01/16 05:36:32;;;;;;;1.58;0.80;;;30.10;67.50;;;;;;4136816;28;20107;-69
2022/01/16 05:38:55;;;;;;;1.55;0.90;;;30.10;67.60;;;;;;4122650;28;20046;-71
2022/01/16 05:41:21;;;;;;;4.23;2.00;;;30.20;67.60;;;;;;4107323;28;20065;-74
2022/01/16 05:43:44;;;;;;;9.93;3.35;;;30.20;65.40;;;;;;4141194;28;20274;-72
2022/01/16 05:46:06;;;;;;;5.65;4.28;;;30.10;61.10;;;;;;4140421;28;20038;-75
2022/01/16 05:48:29;;;;;;;6.32;4.22;;;29.90;58.80;;;;;;4140125;28;20041;-71
2022/01/16 05:50:51;;;;;;;7.70;4.90;;;29.80;57.40;;;;;;4139027;28;20045;-76
2022/01/16 05:53:14;;;;;;;7.90;5.10;;;29.60;56.60;;;;;;4140567;28;20091;-72
2022/01/16 05:55:36;;;;;;;7.90;4.00;;;29.50;56.80;;;;;;4161233;28;20037;-76
2022/01/16 05:57:59;;;;;;;5.40;3.60;;;29.40;58.40;;;;;;4141434;28;20370;-72
2022/01/16 06:00:22;;;;;;;6.70;3.20;;;29.50;58.90;;;;;;4134576;28;20514;-75
2022/01/16 06:02:44;;;;;;;3.83;2.45;;;29.50;59.10;;;;;;4133983;28;20276;-75
2022/01/16 06:05:07;;;;;;;3.83;2.17;;;29.60;59.70;;;;;;4134564;28;20034;-71
2022/01/16 06:07:33;;;;;;;5.35;2.08;;;29.70;60.10;;;;;;4127902;28;20058;-73
2022/01/16 06:09:56;;;;;;;3.13;1.98;;;29.80;60.60;;;;;;4137001;28;20057;-71
2022/01/16 06:12:19;;;;;;;2.70;1.70;;;29.90;60.90;;;;;;4115136;28;20388;-70
2022/01/16 06:14:41;;;;;;;3.08;1.80;;;29.90;61.10;;;;;;4091956;28;20373;-72
2022/01/16 10:47:38;;;;;;;1.40;0.63;;;30.50;66.50;;;;;;4138320;28;20126;-79
2022/01/16 10:50:20;;;;;;;1.73;0.80;;;30.50;66.50;;;;;;4135894;28;20053;-76
2022/01/16 10:52:58;;;;;;;2.53;0.80;;;30.50;66.50;;;;;;4136175;28;20049;-75
2022/01/16 10:55:40;;;;;;;2.28;0.93;;;30.50;66.40;;;;;;4140286;28;20377;-75
2022/01/16 10:58:09;;;;;;;2.28;0.70;;;30.50;66.50;;;;;;4123888;28;20078;-76
2022/01/16 11:00:34;;;;;;;3.88;0.73;;;30.50;66.50;;;;;;4116541;28;20083;-75
2022/01/16 11:03:05;;;;;;;1.63;0.73;;;30.50;66.50;;;;;;4123073;28;20537;-76
2022/01/16 11:05:36;;;;;;;1.48;0.52;;;30.50;66.50;;;;;;4137983;28;20030;-76
2022/01/16 11:08:25;;;;;;;2.88;0.73;;;30.50;66.50;;;;;;4140413;28;20215;-78
2022/01/16 11:10:56;;;;;;;2.38;0.57;;;30.50;66.50;;;;;;4125038;28;20901;-76
2022/01/16 11:13:30;;;;;;;0.60;0.47;;;30.50;66.60;;;;;;4136278;28;20039;-76
2022/01/16 11:15:55;;;;;;;1.33;0.63;;;30.50;66.70;;;;;;4138326;28;20029;-75
2022/01/16 11:18:20;;;;;;;1.40;0.60;;;30.50;66.90;;;;;;4139451;28;20056;-76
2022/01/16 11:20:56;;;;;;;1.50;0.57;;;30.50;67.00;;;;;;4136590;28;20546;-77
2022/01/16 11:25:48;;;;;;;1.27;0.70;;;30.50;67.80;;;;;;4137102;28;20091;-75
2022/01/16 11:28:17;;;;;;;2.45;0.65;;;30.50;67.80;;;;;;4136469;28;20046;-74
2022/01/16 11:30:48;;;;;;;3.90;0.75;;;30.50;68.10;;;;;;4135599;28;20107;-77
2022/01/16 11:33:11;;;;;;;6.13;0.85;;;30.50;68.20;;;;;;4140052;28;20073;-76
2022/01/16 11:35:42;;;;;;;2.95;0.85;;;30.50;68.40;;;;;;4137266;28;20045;-75
2022/01/16 11:38:04;;;;;;;1.35;0.47;;;30.50;68.40;;;;;;4124577;28;20038;-75
2022/01/16 11:40:45;;;;;;;8.50;0.70;;;30.50;68.50;;;;;;4137917;28;20455;-74
2022/01/16 11:43:19;;;;;;;1.27;0.77;;;30.50;68.60;;;;;;4139158;28;20120;-76
2022/01/16 11:46:16;;;;;;;1.38;0.63;;;30.50;68.60;;;;;;4060965;28;20130;-76
2022/01/16 11:48:40;;;;;;;1.45;0.60;;;30.50;68.90;;;;;;4092042;28;20116;-76
2022/01/16 11:51:24;;;;;;;1.38;0.80;;;30.50;69.60;;;;;;4109031;28;20038;-78
2022/01/16 11:55:36;;;;;;;1.98;0.95;;;30.50;69.20;;;;;;4182033;27;21008;-63
2022/01/16 11:59:42;;;;;;;2.08;1.20;;;30.80;69.00;;;;;;4151843;27;20938;-47
2022/01/16 12:02:05;;;;;;;1.88;1.00;;;30.90;68.30;;;;;;4102088;28;20588;-52
2022/01/16 12:04:31;;;;;;;2.20;0.73;;;30.90;68.10;;;;;;4142804;28;20043;-47
2022/01/16 12:06:54;;;;;;;1.63;0.85;;;30.80;68.00;;;;;;4148665;28;20546;-55
2022/01/16 12:09:48;;;;;;;6.20;1.02;;;30.70;68.20;;;;;;4149572;28;20133;-51
2022/01/16 12:12:16;;;;;;;1.73;1.08;;;30.70;68.30;;;;;;4146947;28;20045;-56
2022/01/16 12:15:03;;;;;;;1.65;0.90;;;30.60;68.20;;;;;;4148395;28;20077;-53
2022/01/16 12:17:30;;;;;;;3.85;1.00;;;30.60;68.40;;;;;;4147498;28;20049;-53
2022/01/16 12:19:54;;;;;;;2.38;1.10;;;30.60;68.40;;;;;;4146426;28;20038;-57
2022/01/16 12:22:18;;;;;;;2.47;0.90;;;30.50;68.30;;;;;;4144066;28;21040;-49
2022/01/16 12:24:44;;;;;;;3.17;1.10;;;30.50;68.40;;;;;;4144780;28;20538;-52
2022/01/16 12:27:27;;;;;;;14.70;1.70;;;30.50;68.50;;;;;;4142100;28;20037;-51
2022/01/16 12:30:14;;;;;;;7.40;1.83;;;30.40;68.30;;;;;;4144763;28;20097;-46
2022/01/16 12:32:54;;;;;;;7.68;1.88;;;30.40;68.20;;;;;;4143117;28;20041;-46
2022/01/16 12:35:40;;;;;;;3.30;1.80;;;30.30;68.50;;;;;;4143176;28;20045;-49
2022/01/16 12:38:11;;;;;;;4.20;1.75;;;30.30;67.70;;;;;;4145406;28;20176;-50
2022/01/16 12:40:34;;;;;;;5.72;1.63;;;30.30;67.50;;;;;;4147676;28;20084;-47
2022/01/16 12:43:00;;;;;;;6.53;2.30;;;30.20;67.50;;;;;;4145876;28;20042;-48
2022/01/16 12:45:23;;;;;;;3.83;2.40;;;30.20;67.30;;;;;;4149083;28;20041;-48
2022/01/16 12:47:48;;;;;;;5.67;2.13;;;30.20;67.30;;;;;;4147795;28;20133;-46
2022/01/16 12:50:15;;;;;;;6.75;2.10;;;30.20;67.20;;;;;;4150383;28;20045;-54
2022/01/16 12:52:46;;;;;;;4.28;1.83;;;30.20;67.10;;;;;;4147042;28;20053;-50
2022/01/16 12:55:09;;;;;;;4.80;1.98;;;30.10;67.00;;;;;;4150499;28;20092;-49
2022/01/16 12:57:32;;;;;;;6.20;2.10;;;30.10;67.00;;;;;;4148755;28;20026;-51
2022/01/16 12:59:55;;;;;;;3.45;1.88;;;30.10;67.00;;;;;;4150209;28;20109;-52
2022/01/16 13:02:18;;;;;;;4.47;2.03;;;30.10;66.80;;;;;;4146920;28;20042;-49
2022/01/16 13:04:46;;;;;;;3.60;1.90;;;30.10;66.90;;;;;;4149006;28;20427;-51
2022/01/16 13:07:12;;;;;;;5.38;2.15;;;30.00;66.70;;;;;;4152891;28;20060;-48
2022/01/16 13:09:35;;;;;;;3.45;2.10;;;30.00;66.70;;;;;;4149993;28;20882;-46
2022/01/16 13:11:59;;;;;;;5.10;1.93;;;30.00;66.60;;;;;;4139366;28;20042;-52
2022/01/16 13:14:25;;;;;;;3.30;1.88;;;30.00;66.80;;;;;;4137935;28;20284;-49
2022/01/16 13:16:52;;;;;;;5.60;2.28;;;29.90;66.70;;;;;;4146323;28;20119;-46
2022/01/16 13:19:16;;;;;;;5.82;2.60;;;29.90;66.60;;;;;;4144790;28;20137;-60
2022/01/16 13:22:03;;;;;;;5.50;2.13;;;29.90;66.60;;;;;;4130969;28;20072;-57
2022/01/16 13:24:27;;;;;;;3.88;2.08;;;29.90;66.60;;;;;;4144313;28;20029;-54
2022/01/16 13:26:50;;;;;;;4.60;1.88;;;29.90;66.50;;;;;;4134106;28;20124;-58
2022/01/16 13:29:15;;;;;;;7.07;2.00;;;29.90;66.40;;;;;;4147117;28;20415;-58
2022/01/16 13:31:39;;;;;;;3.92;1.90;;;29.90;66.40;;;;;;4145806;28;20042;-54
2022/01/16 13:34:14;;;;;;;3.42;1.77;;;29.90;66.30;;;;;;4142043;28;20052;-57
2022/01/16 13:36:38;;;;;;;5.60;2.00;;;29.80;66.40;;;;;;4143462;28;20034;-53
2022/01/16 13:39:03;;;;;;;3.72;1.73;;;29.90;66.30;;;;;;4139965;28;20550;-57
2022/01/16 13:41:27;;;;;;;3.33;1.85;;;29.90;66.30;;;;;;4127269;28;20181;-55
2022/01/16 13:43:50;;;;;;;3.53;1.50;;;29.80;66.30;;;;;;4140205;28;20022;-56
2022/01/16 13:46:13;;;;;;;;;;;29.80;66.20;;;;;;4141475;28;20528;-53
2022/01/16 13:48:36;;;;;;;5.82;2.00;;;29.80;66.20;;;;;;4138900;28;19971;-51
2022/01/16 13:51:05;;;;;;;3.95;2.03;;;29.80;66.10;;;;;;4139929;28;20080;-54
2022/01/16 13:53:38;;;;;;;3.75;2.13;;;29.80;66.00;;;;;;4144135;28;20084;-50
2022/01/16 13:56:04;;;;;;;3.47;2.10;;;29.70;66.60;;;;;;4136592;28;20159;-47
2022/01/16 13:58:33;;;;;;;5.25;2.13;;;29.70;66.00;;;;;;4137676;28;20112;-55
2022/01/16 14:01:00;;;;;;;4.43;1.88;;;29.70;66.00;;;;;;4140676;28;20045;-51
2022/01/16 14:03:27;;;;;;;4.63;1.98;;;29.60;66.00;;;;;;4125332;28;20499;-58
2022/01/16 14:05:59;;;;;;;4.38;1.85;;;29.60;66.10;;;;;;4140160;28;20095;-59
2022/01/16 14:08:25;;;;;;;7.35;2.10;;;29.60;66.10;;;;;;4136560;28;20134;-54
2022/01/16 14:10:49;;;;;;;4.72;2.17;;;29.60;66.10;;;;;;4138536;28;20046;-49
2022/01/16 14:13:15;;;;;;;3.92;1.77;;;29.60;66.10;;;;;;4137665;28;20047;-59
2022/01/16 14:15:39;;;;;;;3.10;1.67;;;29.60;66.20;;;;;;4159571;28;20132;-48
2022/01/16 14:18:39;;;;;;;2.70;1.85;;;29.60;66.20;;;;;;4160212;28;20044;-51
2022/01/16 14:20:52;;;;;;;3.67;2.03;;;29.50;66.10;;;;;;4154370;28;20068;-51
2022/01/16 14:23:15;;;;;;;3.75;1.90;;;29.50;66.00;;;;;;4157288;28;20060;-52
2022/01/16 14:25:38;;;;;;;3.53;1.80;;;29.50;66.00;;;;;;4160587;28;20049;-48
2022/01/16 14:28:02;;;;;;;4.22;1.80;;;29.50;66.10;;;;;;4153842;28;20116;-63
2022/01/16 14:30:25;;;;;;;3.38;1.90;;;29.50;66.10;;;;;;4161048;28;20102;-59
2022/01/16 14:32:49;;;;;;;6.05;1.77;;;29.40;66.00;;;;;;4156490;28;20064;-63
2022/01/16 14:35:12;;;;;;;3.75;1.73;;;29.40;65.90;;;;;;4154681;28;20033;-57
2022/01/16 14:37:36;;;;;;;3.83;2.05;;;29.40;66.00;;;;;;4155510;28;20034;-67
2022/01/16 14:40:02;;;;;;;3.78;2.00;;;29.40;66.10;;;;;;4159986;28;20037;-56
2022/01/16 14:42:30;;;;;;;4.25;1.80;;;29.40;66.10;;;;;;4157305;28;20099;-55
2022/01/16 14:44:54;;;;;;;2.33;1.67;;;29.40;66.00;;;;;;4154234;28;20033;-59
2022/01/16 14:47:17;;;;;;;;;;;29.30;66.00;;;;;;4154224;28;20103;-60
2022/01/16 14:49:41;;;;;;;4.75;2.00;;;29.30;66.10;;;;;;4159375;28;20218;-60
2022/01/16 14:52:06;;;;;;;2.95;1.70;;;29.30;66.10;;;;;;4140008;28;20526;-60
2022/01/16 14:54:29;;;;;;;6.63;2.33;;;29.30;66.00;;;;;;4155855;28;20932;-59
2022/01/16 14:56:53;;;;;;;3.50;2.10;;;29.30;66.00;;;;;;4156177;28;20371;-54
2022/01/16 14:59:16;;;;;;;7.47;2.53;;;29.30;66.00;;;;;;4157278;28;20060;-57
2022/01/16 15:01:41;;;;;;;7.35;2.53;;;29.30;66.00;;;;;;4154168;28;20029;-60
2022/01/16 15:04:05;;;;;;;5.15;2.58;;;29.30;65.90;;;;;;4158584;28;20044;-62
2022/01/16 15:06:29;;;;;;;3.30;2.08;;;29.30;65.70;;;;;;4155973;28;20036;-55
2022/01/16 15:08:57;;;;;;;5.07;2.60;;;29.20;65.70;;;;;;4151472;28;20046;-60
2022/01/16 15:11:20;;;;;;;15.65;2.90;;;29.20;65.70;;;;;;4153778;28;20036;-60
2022/01/16 15:13:45;;;;;;;5.80;2.63;;;29.20;65.70;;;;;;4155269;28;20103;-58
2022/01/16 15:16:14;;;;;;;5.35;2.92;;;29.20;65.60;;;;;;4154293;28;20304;-59
2022/01/16 15:18:41;;;;;;;8.43;2.80;;;29.20;65.50;;;;;;4158566;28;20037;-55
2022/01/16 15:21:04;;;;;;;6.10;3.55;;;29.10;65.50;;;;;;4152647;28;20045;-59
2022/01/16 15:23:28;;;;;;;5.70;3.05;;;29.10;65.60;;;;;;4151408;28;20038;-60
2022/01/16 15:25:55;;;;;;;5.05;3.33;;;29.10;65.50;;;;;;4148932;28;20083;-58
2022/01/16 15:28:20;;;;;;;6.78;3.38;;;29.10;65.50;;;;;;4157720;28;20120;-58
2022/01/16 15:30:44;;;;;;;6.68;4.05;;;29.10;65.40;;;;;;4154989;28;20068;-58
2022/01/16 15:33:07;;;;;;;6.20;3.95;;;29.10;65.40;;;;;;4155995;28;20037;-58
2022/01/16 15:35:36;;;;;;;7.15;4.18;;;29.10;65.30;;;;;;4153968;28;20029;-57
2022/01/16 15:38:00;;;;;;;7.20;4.57;;;29.10;65.30;;;;;;4157344;28;20037;-59
2022/01/16 15:40:24;;;;;;;5.88;3.95;;;29.00;65.30;;;;;;4151682;28;20557;-58
2022/01/16 15:42:47;;;;;;;5.93;4.68;;;29.00;65.50;;;;;;4155491;28;20065;-57
2022/01/16 15:45:14;;;;;;;;;;;29.00;65.40;;;;;;4151924;28;20033;-60
2022/01/16 15:47:39;;;;;;;8.45;4.45;;;29.10;64.90;;;;;;4166019;28;19913;-58
2022/01/16 15:50:04;;;;;;;6.82;4.40;;;29.20;64.50;;;;;;4155389;28;21119;-56
2022/01/16 15:52:28;;;;;;;7.53;4.78;;;29.30;64.40;;;;;;4156091;28;20037;-57
2022/01/16 15:54:53;;;;;;;6.10;4.43;;;29.30;64.20;;;;;;4152602;28;20049;-60
2022/01/16 15:57:18;;;;;;;5.03;4.28;;;29.40;64.60;;;;;;4153063;28;20425;-60
2022/01/16 15:59:42;;;;;;;6.78;4.53;;;29.40;64.30;;;;;;4142126;28;20519;-57
2022/01/16 16:02:06;;;;;;;6.93;4.90;;;29.40;64.30;;;;;;4150837;28;20843;-56
2022/01/16 16:04:30;;;;;;;7.32;5.20;;;29.40;64.20;;;;;;4155956;28;20033;-57
2022/01/16 16:06:53;;;;;;;6.88;5.25;;;29.30;64.10;;;;;;4150644;28;20072;-57
2022/01/16 16:09:16;;;;;;;7.00;5.10;;;29.30;64.20;;;;;;4157520;28;20060;-57
2022/01/16 16:11:40;;;;;;;6.10;5.50;;;29.30;64.10;;;;;;4154041;28;20284;-58
2022/01/16 16:14:07;;;;;;;5.22;4.70;;;29.30;64.10;;;;;;4144034;28;20205;-58
2022/01/16 16:16:30;;;;;;;6.32;5.22;;;29.30;64.10;;;;;;4140929;28;20034;-58
2022/01/16 16:18:52;;;;;;;6.70;5.82;;;29.30;64.10;;;;;;4156920;28;20486;-60
2022/01/16 16:21:16;;;;;;;7.35;5.72;;;29.30;64.10;;;;;;4150587;28;20045;-59
2022/01/16 16:23:38;;;;;;;5.78;4.90;;;29.30;64.20;;;;;;4154513;28;20044;-61
2022/01/16 16:26:02;;;;;;;7.17;5.60;;;29.30;64.20;;;;;;4143311;28;20042;-59
2022/01/16 16:28:25;;;;;;;7.32;5.65;;;29.30;64.20;;;;;;4146080;28;20120;-58
2022/01/16 16:30:49;;;;;;;8.65;5.80;;;29.30;64.10;;;;;;4155000;28;20731;-60
2022/01/16 16:33:13;;;;;;;6.90;5.88;;;29.30;64.10;;;;;;4147142;28;20109;-56
2022/01/16 16:35:37;;;;;;;6.63;5.38;;;29.30;64.10;;;;;;4155277;28;20649;-58
2022/01/16 16:38:00;;;;;;;6.13;5.22;;;29.30;64.10;;;;;;4155623;28;20038;-58
2022/01/16 16:40:25;;;;;;;7.03;4.90;;;29.30;64.10;;;;;;4155554;28;20154;-57
2022/01/16 16:42:49;;;;;;;6.47;4.78;;;29.30;64.10;;;;;;4147855;28;20069;-58
2022/01/16 16:45:12;;;;;;;6.50;4.75;;;29.30;64.20;;;;;;4155708;28;20041;-64
2022/01/16 16:47:36;;;;;;;6.10;5.40;;;29.30;64.30;;;;;;4159255;28;20757;-59
2022/01/16 16:50:01;;;;;;;6.88;5.03;;;29.20;64.20;;;;;;4157700;28;20481;-59
2022/01/16 16:52:25;;;;;;;6.22;5.05;;;29.20;64.20;;;;;;4159059;28;20124;-59
2022/01/16 16:54:49;;;;;;;6.65;5.10;;;29.20;64.20;;;;;;4158688;28;20091;-59
2022/01/16 16:57:15;;;;;;;7.13;5.03;;;29.20;64.10;;;;;;4144563;28;20073;-59
2022/01/16 16:59:38;;;;;;;6.57;5.18;;;29.20;64.10;;;;;;4144110;28;20053;-59
2022/01/16 17:02:04;;;;;;;7.78;5.35;;;29.20;64.10;;;;;;4153676;28;20402;-59
2022/01/16 17:04:27;;;;;;;6.18;5.03;;;29.20;64.10;;;;;;4143662;28;20038;-60
2022/01/16 17:06:51;;;;;;;6.43;5.32;;;29.20;64.10;;;;;;4144200;28;20046;-60
2022/01/16 17:09:15;;;;;;;6.78;5.50;;;29.20;64.10;;;;;;4142981;28;20049;-60
2022/01/16 17:11:38;;;;;;;6.70;5.85;;;29.10;64.00;;;;;;4144608;28;20038;-60
2022/01/16 17:14:03;;;;;;;6.63;5.40;;;29.10;64.10;;;;;;4159174;28;20766;-61
2022/01/16 17:16:27;;;;;;;7.72;5.28;;;29.10;64.10;;;;;;4157663;28;20037;-61
2022/01/16 17:18:54;;;;;;;6.28;4.80;;;29.10;64.00;;;;;;4154838;28;20110;-61
2022/01/16 17:21:18;;;;;;;6.75;4.55;;;29.10;64.00;;;;;;4150141;28;20042;-61
2022/01/16 17:23:42;;;;;;;8.07;5.03;;;29.10;64.00;;;;;;4148204;28;20076;-61
2022/01/16 17:26:06;;;;;;;6.15;5.07;;;29.00;64.00;;;;;;4148222;28;20034;-61
2022/01/16 17:28:30;;;;;;;5.40;4.22;;;29.00;64.00;;;;;;4157006;28;20057;-61
2022/01/16 17:30:54;;;;;;;6.25;4.70;;;29.00;64.00;;;;;;4156180;28;20141;-61
2022/01/16 17:33:18;;;;;;;6.00;4.43;;;29.00;64.00;;;;;;4155877;28;20041;-61
2022/01/16 17:35:41;;;;;;;6.68;4.70;;;29.00;64.20;;;;;;4156668;28;20038;-61
2022/01/16 17:38:04;;;;;;;;;;;29.00;64.00;;;;;;4163119;28;20037;-62
2022/01/16 17:40:29;;;;;;;4.63;3.60;;;29.00;64.10;;;;;;4148644;28;20299;-61
2022/01/16 17:42:52;;;;;;;5.82;3.80;;;29.00;64.00;;;;;;4155699;28;20034;-61
2022/01/16 17:45:16;;;;;;;5.68;3.83;;;28.90;64.00;;;;;;4146643;28;20038;-61
2022/01/16 17:47:40;;;;;;;6.93;3.88;;;28.90;64.00;;;;;;4146078;28;20026;-62
2022/01/16 17:50:04;;;;;;;5.05;3.70;;;28.90;64.00;;;;;;4147186;28;20115;-61
2022/01/16 17:52:28;;;;;;;6.05;3.50;;;28.90;64.00;;;;;;4143105;28;20518;-65
2022/01/16 17:54:55;;;;;;;4.57;3.35;;;28.90;64.10;;;;;;4143861;28;20034;-64